East Rochester, New Hampshire
Current Conditions -  °F | °C
As of 9:18 PM on Monday 22 Dec 2014 (Local Time) from KDAW Reporting Station
Overcast Overcast  
Wind Chill: 28°   Ceiling: 3400
Heat Index: 33°   Visibility: 8mi
Dew Point: 31°   Wind: 6mph
Humidity: 92%   Direction: 10°N
Pressure: 30.33"   Gusts: NA
Location:  43.3246°N, 70.9445°W
Report Text: KDAW 230218Z AUTO 01005KT 8SM SCT010 BKN034 OVC042 01/M01 A3033 RMK AO2 RAE05UPB03E04 P0000 T00061006
Loading
Personal Weather Stations






























Interactive Weather Map New forecast layout! Learn more

10-Day Weather Forecast

Advertisements
Track Severe Weather on mobile